CDT,Max TemperatureF,Mean TemperatureF,Min TemperatureF,Max Dew PointF,MeanDew PointF,Min DewpointF,Max Humidity, Mean Humidity, Min Humidity, Max Sea Level PressureIn, Mean Sea Level PressureIn, Min Sea Level PressureIn, Max VisibilityMiles, Mean VisibilityMiles, Min VisibilityMiles, Max Wind SpeedMPH, Mean Wind SpeedMPH, Max Gust SpeedMPH,PrecipitationIn, CloudCover, Events, WindDirDegrees
2013-7-1,84,74,62,59,56,52,83,55,33,30.04,29.99,29.95,10,10,10,13,3,17,0.00,1,,339
2013-7-2,86,70,55,64,52,43,100,56,22,30.10,30.06,30.03,10,10,10,9,2,18,0.00,1,,332
2013-7-3,86,70,55,63,55,46,100,63,25,30.13,30.08,30.02,10,10,7,7,1,,0.00,2,,62
2013-7-4,89,74,59,64,57,46,100,64,22,30.09,30.04,29.98,10,10,5,8,1,,0.00,1,Thunderstorm,15
2013-7-5,93,76,59,66,57,52,100,54,24,30.08,30.02,29.96,10,9,4,12,1,,0.00,1,,178
2013-7-6,95,78,60,68,58,46,100,56,19,30.05,30.01,29.96,10,10,5,9,1,16,0.00,1,,114
2013-7-7,95,80,64,72,62,55,100,55,26,30.09,30.05,30.01,10,10,5,8,1,,0.00,1,,147
2013-7-8,95,82,69,79,67,63,100,61,34,30.16,30.11,30.06,10,10,7,8,2,,0.00,3,,198
2013-7-9,96,86,77,70,66,59,78,52,28,30.16,30.10,30.03,10,10,10,12,4,18,0.00,1,,225
2013-7-10,102,88,73,81,68,61,100,56,26,30.09,30.04,29.93,10,10,10,13,5,20,0.02,2,Thunderstorm,249
2013-7-11,98,86,73,79,68,59,100,62,27,30.04,29.99,29.93,10,10,7,9,4,17,0.03,1,Thunderstorm,303
2013-7-12,96,82,69,72,64,59,100,56,30,30.08,30.02,29.98,10,10,7,13,3,,0.00,0,,56
2013-7-13,93,76,59,68,55,45,100,49,20,30.08,30.03,29.98,10,10,7,8,1,,0.00,0,,46
2013-7-14,91,78,66,68,58,45,100,53,20,30.05,30.01,29.97,10,10,10,14,2,17,0.00,1,,84
2013-7-15,91,81,71,77,67,61,100,72,38,30.19,30.11,30.03,10,10,2,10,2,23,0.66,4,Thunderstorm,134
2013-7-16,91,80,69,79,69,61,100,72,36,30.27,30.22,30.17,10,8,2,13,2,17,0.07,3,,91
2013-7-17,95,82,68,79,68,59,100,61,30,30.32,30.26,30.19,10,10,5,10,2,9,0.00,2,,102
2013-7-18,96,82,69,77,68,59,100,62,28,30.24,30.17,30.06,10,10,7,8,1,17,0.01,2,Thunderstorm,276
2013-7-19,91,81,69,79,72,68,100,79,46,30.10,30.05,29.97,10,10,2,13,2,48,1.08,3,Thunderstorm,242
2013-7-20,91,80,69,79,71,64,100,71,41,30.03,29.98,29.90,10,8,4,9,2,16,0.21,3,Thunderstorm,249
2013-7-21,91,81,71,79,72,68,100,68,46,29.99,29.95,29.90,10,8,0,8,1,,0.00,3,Thunderstorm,198
2013-7-22,95,85,75,82,74,68,100,72,44,30.01,29.95,29.90,10,10,5,12,4,21,0.00,3,,229
2013-7-23,98,88,73,73,71,68,100,61,41,30.00,29.94,29.86,10,10,2,16,7,24,0.30,2,Thunderstorm,233
2013-7-24,86,78,69,77,69,64,100,68,48,30.06,29.99,29.92,10,9,2,10,3,9,3.21,4,Thunderstorm,14
2013-7-25,87,78,68,79,72,68,100,70,52,30.11,30.07,30.02,10,9,4,15,1,,0.07,2,,94
2013-7-26,73,71,69,,,,,,,30.12,30.04,29.94,10,6,1,12,1,17,3.82,6,Rain-Thunderstorm,71
2013-7-27,86,78,69,73,66,63,100,65,45,30.05,30.01,29.98,10,8,2,9,5,,0.00,5,,28
2013-7-28,87,74,64,75,69,66,100,71,52,30.06,30.03,29.98,10,8,2,6,1,,0.00,0,,56
2013-7-29,,,,,,,,,,,,,,,,,,,,,,
2013-7-30,,,,,,,,,,,,,,,,,,,,,,
2013-7-31,,,,,,,,,,,,,,,,,,,,,,